Time;durP1;ratioP1;P1;durP2;ratioP2;P2;SDS_P1;SDS_P2;PMS_P1;PMS_P2;Temp;Humidity;BMP_temperature;BMP_pressure;BME280_temperature;BME280_humidity;BME280_pressure;Samples;Min_cycle;Max_cycle;Signal;HPM_P1;HPM_P2
2021/03/31 00:00:26;;;;;;;;;;;;;;;4.98;100.00;101986.44;5051199;28;20471;-66
2021/03/31 00:02:52;;;;;;;;;;;;;;;4.93;100.00;101980.34;5044595;28;19929;-66
2021/03/31 00:05:19;;;;;;;;;;;;;;;4.95;100.00;101979.34;5050675;28;19935;-66
2021/03/31 00:07:45;;;;;;;;;;;;;;;4.92;100.00;101978.59;5051120;28;19931;-66
2021/03/31 00:10:14;;;;;;;;;;;;;;;4.88;100.00;101967.09;5051263;28;19929;-66
2021/03/31 00:12:40;;;;;;;;;;;;;;;4.85;100.00;101977.94;5050942;28;20024;-66
2021/03/31 00:15:06;;;;;;;;;;;;;;;4.81;100.00;101973.59;5051441;28;20073;-66
2021/03/31 00:17:32;;;;;;;;;;;;;;;4.76;100.00;101979.19;5051602;28;19925;-66
2021/03/31 00:19:58;;;;;;;;;;;;;;;4.74;100.00;101974.78;5050888;28;19936;-66
2021/03/31 00:22:24;;;;;;;;;;;;;;;4.69;100.00;101967.75;5050786;28;19925;-66
2021/03/31 00:24:50;;;;;;;;;;;;;;;4.71;100.00;101966.84;5032918;28;19928;-66
2021/03/31 00:27:16;;;;;;;;;;;;;;;4.64;100.00;101966.19;5050801;28;19932;-66
2021/03/31 00:29:42;;;;;;;;;;;;;;;4.60;100.00;101968.09;5050762;28;19964;-66
2021/03/31 00:32:08;;;;;;;;;;;;;;;4.53;100.00;101964.75;5035813;28;20011;-66
2021/03/31 00:34:34;;;;;;;;;;;;;;;4.57;100.00;101967.31;5054529;28;19932;-66
2021/03/31 00:37:00;;;;;;;;;;;;;;;4.52;100.00;101954.94;5054488;28;20356;-66
2021/03/31 00:39:26;;;;;;;;;;;;;;;4.45;100.00;101960.56;5054684;28;19925;-66
2021/03/31 00:41:52;;;;;;;;;;;;;;;4.42;100.00;101960.69;5054560;28;19931;-66
2021/03/31 00:44:19;;;;;;;;;;;;;;;4.42;100.00;101953.50;5054818;28;19968;-67
2021/03/31 00:46:45;;;;;;;;;;;;;;;4.43;100.00;101955.25;5054094;28;20314;-67
2021/03/31 00:49:11;;;;;;;;;;;;;;;4.46;100.00;101956.97;5054879;28;19924;-67
2021/03/31 00:51:37;;;;;;;;;;;;;;;4.62;100.00;101959.97;5036528;28;19928;-67
2021/03/31 00:54:03;;;;;;;;;;;;;;;4.69;100.00;101958.81;5054420;28;19925;-67
2021/03/31 00:56:30;;;;;;;;;;;;;;;4.74;100.00;101950.56;5054012;28;20002;-67
2021/03/31 00:58:56;;;;;;;;;;;;;;;4.61;100.00;101953.72;5054039;28;19925;-67
2021/03/31 01:01:22;;;;;;;;;;;;;;;4.51;100.00;101952.28;5053597;28;19925;-66
2021/03/31 01:03:48;;;;;;;;;;;;;;;4.45;100.00;101953.41;5054022;28;20013;-65
2021/03/31 01:06:14;;;;;;;;;;;;;;;4.42;100.00;101942.72;5036035;28;20092;-65
2021/03/31 01:08:40;;;;;;;;;;;;;;;4.42;100.00;101956.19;5054289;28;20407;-66
2021/03/31 01:11:06;;;;;;;;;;;;;;;4.39;100.00;101959.00;5054042;28;19924;-67
2021/03/31 01:13:53;;;;;;;;;;;;;;;4.28;100.00;101948.63;5053910;28;19925;-66
2021/03/31 01:16:24;;;;;;;;;;;;;;;4.23;100.00;101953.28;5053553;28;19925;-66
2021/03/31 01:18:51;;;;;;;;;;;;;;;4.17;100.00;101954.38;5053815;28;19929;-66
2021/03/31 01:21:41;;;;;;;;;;;;;;;4.14;100.00;101951.81;5053666;28;19944;-67
2021/03/31 01:24:23;;;;;;;;;;;;;;;4.07;100.00;101952.06;5053816;28;20296;-66
2021/03/31 01:26:51;;;;;;;;;;;;;;;4.01;100.00;101953.16;5053463;28;20224;-67
2021/03/31 01:29:33;;;;;;;;;;;;;;;3.99;100.00;101949.63;5053716;28;20356;-67
2021/03/31 01:32:05;;;;;;;;;;;;;;;3.95;100.00;101958.72;5053658;28;19925;-67
2021/03/31 01:34:36;;;;;;;;;;;;;;;3.89;100.00;101950.84;5053383;28;20400;-66
2021/03/31 01:37:07;;;;;;;;;;;;;;;3.96;100.00;101961.34;5053199;28;20445;-67
2021/03/31 01:39:34;;;;;;;;;;;;;;;3.96;100.00;101955.97;5053295;28;20365;-67
2021/03/31 01:42:01;;;;;;;;;;;;;;;3.86;100.00;101959.91;5053312;28;20457;-65
2021/03/31 01:44:27;;;;;;;;;;;;;;;3.82;100.00;101952.88;5053292;28;19925;-67
2021/03/31 01:46:54;;;;;;;;;;;;;;;3.81;100.00;101957.38;5053193;28;19979;-66
2021/03/31 01:49:22;;;;;;;;;;;;;;;3.81;100.00;101951.16;5053248;28;19952;-67
2021/03/31 01:51:49;;;;;;;;;;;;;;;3.81;100.00;101946.63;5035329;28;19929;-67
2021/03/31 01:54:16;;;;;;;;;;;;;;;3.83;100.00;101949.28;5053269;28;19925;-66
2021/03/31 01:56:43;;;;;;;;;;;;;;;3.77;100.00;101938.72;5052729;28;19931;-67
2021/03/31 01:59:09;;;;;;;;;;;;;;;3.70;100.00;101943.41;5052990;28;19929;-66
2021/03/31 02:01:35;;;;;;;;;;;;;;;3.65;100.00;101940.91;5053083;28;19931;-67
2021/03/31 02:04:01;;;;;;;;;;;;;;;3.71;100.00;101945.19;5053032;28;19925;-66
2021/03/31 02:06:27;;;;;;;;;;;;;;;3.81;100.00;101941.25;5034881;28;19931;-66
2021/03/31 02:08:55;;;;;;;;;;;;;;;3.89;100.00;101942.81;5052921;28;20358;-66
2021/03/31 02:11:21;;;;;;;;;;;;;;;3.90;100.00;101940.09;5052932;28;19925;-66
2021/03/31 02:13:48;;;;;;;;;;;;;;;3.79;100.00;101932.38;5052799;28;19924;-66
2021/03/31 02:16:14;;;;;;;;;;;;;;;3.71;100.00;101931.75;5052549;28;19924;-66
2021/03/31 02:18:40;;;;;;;;;;;;;;;3.63;100.00;101926.63;5052683;28;20281;-66
2021/03/31 02:21:07;;;;;;;;;;;;;;;3.59;100.00;101929.47;5052653;28;19925;-66
2021/03/31 02:23:35;;;;;;;;;;;;;;;3.58;100.00;101925.03;5052697;28;19986;-67
2021/03/31 02:26:02;;;;;;;;;;;;;;;3.49;100.00;101929.78;5052310;28;19983;-66
2021/03/31 02:28:28;;;;;;;;;;;;;;;3.41;100.00;101931.84;5052646;28;20303;-66
2021/03/31 02:30:54;;;;;;;;;;;;;;;3.35;100.00;101924.88;5052606;28;19925;-66
2021/03/31 02:33:20;;;;;;;;;;;;;;;3.30;100.00;101924.13;5034717;28;19928;-66
2021/03/31 02:35:46;;;;;;;;;;;;;;;3.22;100.00;101926.19;5052212;28;20311;-66
2021/03/31 02:38:14;;;;;;;;;;;;;;;3.20;100.00;101922.66;5052337;28;20006;-66
2021/03/31 02:40:40;;;;;;;;;;;;;;;3.17;100.00;101928.13;5052343;28;19936;-66
2021/03/31 02:43:07;;;;;;;;;;;;;;;3.14;100.00;101923.72;5052191;28;19925;-66
2021/03/31 02:45:33;;;;;;;;;;;;;;;3.11;100.00;101923.78;5051971;28;19951;-66
2021/03/31 02:48:00;;;;;;;;;;;;;;;3.09;100.00;101919.44;5052260;28;19924;-66
2021/03/31 02:50:26;;;;;;;;;;;;;;;3.05;100.00;101912.38;5051982;28;19932;-66
2021/03/31 02:52:52;;;;;;;;;;;;;;;3.00;100.00;101918.75;5052157;28;19964;-66
2021/03/31 02:55:20;;;;;;;;;;;;;;;3.01;100.00;101916.97;5051247;28;19982;-66
2021/03/31 02:57:47;;;;;;;;;;;;;;;3.00;100.00;101910.72;5051995;28;19925;-66
2021/03/31 03:00:14;;;;;;;;;;;;;;;3.05;100.00;101915.97;5051458;28;19979;-66
2021/03/31 03:02:41;;;;;;;;;;;;;;;3.04;100.00;101906.16;5052029;28;19936;-66
2021/03/31 03:05:08;;;;;;;;;;;;;;;3.06;100.00;101909.69;5033791;28;19931;-66
2021/03/31 03:07:34;;;;;;;;;;;;;;;3.07;100.00;101906.03;5051733;28;20315;-66
2021/03/31 03:10:01;;;;;;;;;;;;;;;3.03;100.00;101901.69;5051849;28;20418;-66
2021/03/31 03:12:27;;;;;;;;;;;;;;;2.98;100.00;101906.31;5051598;28;19951;-66
2021/03/31 03:14:54;;;;;;;;;;;;;;;2.99;100.00;101905.41;5051758;28;19924;-66
2021/03/31 03:17:20;;;;;;;;;;;;;;;2.92;100.00;101902.03;5051468;28;20441;-66
2021/03/31 03:19:47;;;;;;;;;;;;;;;2.92;100.00;101903.84;5051541;28;20002;-66
2021/03/31 03:22:13;;;;;;;;;;;;;;;2.84;100.00;101899.56;5051722;28;19925;-66
2021/03/31 03:24:42;;;;;;;;;;;;;;;2.80;100.00;101905.09;5033519;28;19932;-66
2021/03/31 03:27:10;;;;;;;;;;;;;;;2.75;100.00;101902.53;5051370;28;19933;-66
2021/03/31 03:29:37;;;;;;;;;;;;;;;2.68;100.00;101909.00;5051368;28;19990;-66
2021/03/31 03:32:03;;;;;;;;;;;;;;;2.63;100.00;101898.44;5033701;28;19924;-66
2021/03/31 03:34:30;;;;;;;;;;;;;;;2.58;100.00;101900.38;5051348;28;20252;-66
2021/03/31 03:36:56;;;;;;;;;;;;;;;2.57;100.00;101895.06;5051164;28;19925;-67
2021/03/31 03:39:22;;;;;;;;;;;;;;;2.53;100.00;101896.94;5033504;28;20280;-66
2021/03/31 03:41:48;;;;;;;;;;;;;;;2.54;100.00;101900.47;5051197;28;20410;-66
2021/03/31 03:44:15;;;;;;;;;;;;;;;2.57;100.00;101895.91;5051487;28;20518;-66
2021/03/31 03:46:41;;;;;;;;;;;;;;;2.59;100.00;101893.19;5050935;28;19982;-66
2021/03/31 03:49:06;;;;;;;;;;;;;;;2.53;100.00;101885.34;5033477;28;20311;-66
2021/03/31 03:51:33;;;;;;;;;;;;;;;2.47;100.00;101889.97;5051535;28;19962;-66
2021/03/31 03:53:59;;;;;;;;;;;;;;;2.41;100.00;101884.75;5051167;28;19932;-66
2021/03/31 03:56:25;;;;;;;;;;;;;;;2.36;100.00;101885.81;5050850;28;19925;-66
2021/03/31 03:58:51;;;;;;;;;;;;;;;2.33;100.00;101892.16;5051154;28;19924;-67
2021/03/31 04:01:17;;;;;;;;;;;;;;;2.28;100.00;101897.63;5051218;28;20378;-66
2021/03/31 04:03:43;;;;;;;;;;;;;;;2.29;100.00;101893.16;5050895;28;20338;-66
2021/03/31 04:06:09;;;;;;;;;;;;;;;2.32;100.00;101890.38;5051637;28;19932;-66
2021/03/31 04:08:36;;;;;;;;;;;;;;;2.29;100.00;101879.75;5055129;28;20403;-66
2021/03/31 04:11:03;;;;;;;;;;;;;;;2.32;100.00;101880.53;5055022;28;20379;-67
2021/03/31 04:13:30;;;;;;;;;;;;;;;2.31;100.00;101870.75;5037390;28;19940;-66
2021/03/31 04:15:58;;;;;;;;;;;;;;;2.28;100.00;101876.19;5055777;28;19925;-66
2021/03/31 04:18:25;;;;;;;;;;;;;;;2.24;100.00;101871.84;5055910;28;19925;-66
2021/03/31 04:20:51;;;;;;;;;;;;;;;2.21;100.00;101865.69;5038721;28;20016;-66
2021/03/31 04:23:18;;;;;;;;;;;;;;;2.19;100.00;101863.03;5055944;28;19932;-66
2021/03/31 04:25:44;;;;;;;;;;;;;;;2.27;100.00;101866.41;5021797;28;20383;-67
2021/03/31 04:28:11;;;;;;;;;;;;;;;2.27;100.00;101865.50;5039365;28;19972;-66
2021/03/31 04:30:39;;;;;;;;;;;;;;;2.27;100.00;101861.06;5054205;28;19996;-68
2021/03/31 04:33:05;;;;;;;;;;;;;;;2.24;100.00;101865.59;5040839;28;20369;-67
2021/03/31 04:35:31;;;;;;;;;;;;;;;2.20;100.00;101869.28;5050265;28;19968;-67
2021/03/31 04:38:06;;;;;;;;;;;;;;;2.18;100.00;101866.66;5035559;28;20394;-66
2021/03/31 04:40:40;;;;;;;;;;;;;;;2.20;100.00;101858.59;5037648;28;19925;-66
2021/03/31 04:43:07;;;;;;;;;;;;;;;2.18;100.00;101869.34;5054320;28;19925;-66
2021/03/31 04:45:33;;;;;;;;;;;;;;;2.16;100.00;101864.03;5045232;28;19932;-66
2021/03/31 04:47:59;;;;;;;;;;;;;;;2.15;100.00;101864.94;5034312;28;19925;-66
2021/03/31 04:50:25;;;;;;;;;;;;;;;2.15;100.00;101856.91;5044987;28;19964;-66
2021/03/31 04:52:51;;;;;;;;;;;;;;;2.17;100.00;101848.81;5036727;28;20381;-66
2021/03/31 04:55:16;;;;;;;;;;;;;;;2.20;100.00;101854.09;5050595;28;20002;-66
2021/03/31 04:57:42;;;;;;;;;;;;;;;2.30;100.00;101865.44;5047333;28;20039;-66
2021/03/31 05:00:10;;;;;;;;;;;;;;;2.40;100.00;101853.50;5036035;28;19994;-66
2021/03/31 05:02:36;;;;;;;;;;;;;;;2.43;100.00;101852.56;5047567;28;19929;-67
2021/03/31 05:05:02;;;;;;;;;;;;;;;2.43;100.00;101850.78;5047450;28;20384;-66
2021/03/31 05:07:27;;;;;;;;;;;;;;;2.50;100.00;101846.97;5060178;28;20392;-67
2021/03/31 05:09:53;;;;;;;;;;;;;;;2.55;100.00;101854.00;5074054;28;19947;-66
2021/03/31 05:12:19;;;;;;;;;;;;;;;2.57;100.00;101852.16;5062989;28;19991;-67
2021/03/31 05:14:45;;;;;;;;;;;;;;;2.63;100.00;101844.81;5053787;28;19929;-66
2021/03/31 05:17:12;;;;;;;;;;;;;;;2.74;100.00;101839.13;5044670;28;19925;-65
2021/03/31 05:19:37;;;;;;;;;;;;;;;2.91;100.00;101837.72;5033780;28;19952;-67
2021/03/31 05:22:03;;;;;;;;;;;;;;;3.03;100.00;101836.44;5035004;28;19925;-66
2021/03/31 05:24:29;;;;;;;;;;;;;;;3.13;100.00;101835.22;5053419;28;19936;-67
2021/03/31 05:26:56;;;;;;;;;;;;;;;3.31;100.00;101833.72;5029190;28;19925;-66
2021/03/31 05:29:22;;;;;;;;;;;;;;;3.57;100.00;101832.88;5033416;28;19925;-65
2021/03/31 05:31:47;;;;;;;;;;;;;;;3.95;100.00;101835.13;5038104;28;20003;-67
2021/03/31 05:34:14;;;;;;;;;;;;;;;4.43;100.00;101826.19;5019059;28;19925;-67
2021/03/31 05:36:40;;;;;;;;;;;;;;;4.96;100.00;101822.34;5051366;28;20003;-67
2021/03/31 05:39:06;;;;;;;;;;;;;;;5.59;100.00;101820.69;5043061;28;19933;-67
2021/03/31 05:41:32;;;;;;;;;;;;;;;6.16;100.00;101813.69;5035576;28;19933;-66
2021/03/31 05:43:58;;;;;;;;;;;;;;;6.74;100.00;101811.91;5046586;28;19925;-66
2021/03/31 05:46:24;;;;;;;;;;;;;;;7.32;100.00;101804.59;5040013;28;19925;-65
2021/03/31 05:48:50;;;;;;;;;;;;;;;7.80;100.00;101800.34;5053202;28;19924;-65
2021/03/31 05:51:17;;;;;;;;;;;;;;;8.31;100.00;101796.75;5053197;28;20011;-65
2021/03/31 05:53:43;;;;;;;;;;;;;;;8.75;100.00;101797.97;5050399;28;19924;-65
2021/03/31 05:56:09;;;;;;;;;;;;;;;9.15;100.00;101791.16;5035361;28;20020;-65
2021/03/31 05:58:35;;;;;;;;;;;;;;;9.58;100.00;101794.97;5036065;28;19932;-65
2021/03/31 06:01:02;;;;;;;;;;;;;;;9.60;100.00;101796.63;5042324;28;19929;-65
2021/03/31 06:03:28;;;;;;;;;;;;;;;9.70;100.00;101789.69;5051545;28;19948;-65
2021/03/31 06:05:55;;;;;;;;;;;;;;;9.92;100.00;101787.53;5051940;28;20372;-64
2021/03/31 06:08:22;;;;;;;;;;;;;;;10.32;100.00;101787.75;5037873;28;19924;-64
2021/03/31 06:10:48;;;;;;;;;;;;;;;10.74;100.00;101787.81;5047389;28;19952;-65
2021/03/31 06:13:14;;;;;;;;;;;;;;;11.19;100.00;101783.03;5032567;28;19932;-64
2021/03/31 06:15:41;;;;;;;;;;;;;;;11.69;100.00;101785.97;5051508;28;19928;-65
2021/03/31 06:18:11;;;;;;;;;;;;;;;12.22;100.00;101770.47;5052487;28;20042;-64
2021/03/31 06:20:39;;;;;;;;;;;;;;;12.69;100.00;101773.47;5052630;28;19927;-65
2021/03/31 06:23:10;;;;;;;;;;;;;;;13.13;100.00;101770.25;5051914;28;19959;-64
2021/03/31 06:25:44;;;;;;;;;;;;;;;13.61;100.00;101766.66;5052107;28;19925;-64
2021/03/31 06:28:10;;;;;;;;;;;;;;;14.07;100.00;101766.63;5041188;28;20119;-65
2021/03/31 06:30:36;;;;;;;;;;;;;;;14.68;100.00;101776.31;5032008;28;19933;-64
2021/03/31 06:33:02;;;;;;;;;;;;;;;15.28;100.00;101772.34;5050581;28;20370;-66
2021/03/31 06:35:29;;;;;;;;;;;;;;;15.82;100.00;101776.84;5041108;28;20353;-66
2021/03/31 06:38:02;;;;;;;;;;;;;;;15.87;100.00;101769.09;5040841;28;19986;-64
2021/03/31 06:40:32;;;;;;;;;;;;;;;15.86;100.00;101771.94;5051168;28;19994;-66
2021/03/31 06:43:08;;;;;;;;;;;;;;;16.08;100.00;101765.47;5035662;28;20023;-65
2021/03/31 06:45:36;;;;;;;;;;;;;;;16.20;100.00;101758.88;5037754;28;19943;-65
2021/03/31 06:48:04;;;;;;;;;;;;;;;16.55;100.00;101756.72;5033325;28;20388;-65
2021/03/31 06:50:38;;;;;;;;;;;;;;;16.95;100.00;101765.97;5032238;28;19975;-65
2021/03/31 06:53:05;;;;;;;;;;;;;;;17.24;100.00;101760.53;5033885;28;19948;-65
2021/03/31 06:55:31;;;;;;;;;;;;;;;17.49;100.00;101760.94;5033638;28;19964;-65
2021/03/31 06:57:58;;;;;;;;;;;;;;;17.64;100.00;101762.25;5032452;28;20342;-65
2021/03/31 07:00:26;;;;;;;;;;;;;;;17.48;100.00;101757.34;5026251;28;20260;-65
2021/03/31 07:02:52;;;;;;;;;;;;;;;17.27;100.00;101753.88;5043778;28;19929;-65
2021/03/31 07:05:18;;;;;;;;;;;;;;;17.57;100.00;101750.09;5040606;28;20066;-65
2021/03/31 07:07:44;;;;;;;;;;;;;;;17.75;100.00;101755.72;5051022;28;20406;-64
2021/03/31 07:10:12;;;;;;;;;;;;;;;17.54;100.00;101748.53;5033684;28;19945;-64
2021/03/31 07:12:41;;;;;;;;;;;;;;;17.76;100.00;101759.31;5031527;28;19929;-64
2021/03/31 07:15:08;;;;;;;;;;;;;;;17.79;100.00;101754.41;5032656;28;19925;-64
2021/03/31 07:17:35;;;;;;;;;;;;;;;17.74;100.00;101752.13;5044102;28;19924;-64
2021/03/31 07:20:01;;;;;;;;;;;;;;;17.99;100.00;101748.94;5051591;28;19924;-64
2021/03/31 07:22:27;;;;;;;;;;;;;;;18.53;98.77;101749.13;5034037;28;20026;-64
2021/03/31 07:24:54;;;;;;;;;;;;;;;19.06;94.66;101755.81;5031560;28;19932;-64
2021/03/31 07:27:23;;;;;;;;;;;;;;;19.19;91.94;101748.03;5046426;28;19925;-64
2021/03/31 07:32:30;;;;;;;;;;;;;;;19.02;93.56;101752.50;5037704;28;19978;-64
2021/03/31 07:34:58;;;;;;;;;;;;;;;19.52;90.04;101745.59;5049792;28;19932;-63
2021/03/31 07:37:24;;;;;;;;;;;;;;;20.15;87.20;101740.91;5050809;28;19925;-64
2021/03/31 07:39:51;;;;;;;;;;;;;;;20.59;84.74;101748.19;5049461;28;19932;-64
2021/03/31 07:42:17;;;;;;;;;;;;;;;21.05;81.07;101750.59;5041762;28;19939;-63
2021/03/31 07:44:44;;;;;;;;;;;;;;;21.37;73.14;101748.94;5046806;28;19932;-65
2021/03/31 07:47:10;;;;;;;;;;;;;;;20.99;77.02;101751.25;5045137;28;20411;-66
2021/03/31 07:49:36;;;;;;;;;;;;;;;20.98;80.06;101746.78;5045897;28;19940;-66
2021/03/31 07:52:06;;;;;;;;;;;;;;;21.52;73.10;101752.72;5035470;28;19931;-65
2021/03/31 07:54:32;;;;;;;;;;;;;;;22.02;69.77;101755.47;5022453;28;19925;-65
2021/03/31 07:56:59;;;;;;;;;;;;;;;21.52;68.86;101743.56;5047252;28;20396;-66
2021/03/31 07:59:25;;;;;;;;;;;;;;;21.98;68.67;101751.34;5041831;28;19925;-65
2021/03/31 08:01:52;;;;;;;;;;;;;;;22.56;63.14;101749.31;5041391;28;20296;-65
2021/03/31 08:04:19;;;;;;;;;;;;;;;22.83;67.12;101742.41;5032003;28;19925;-65
2021/03/31 08:06:45;;;;;;;;;;;;;;;22.91;63.79;101747.06;5037280;28;20019;-64
2021/03/31 08:09:18;;;;;;;;;;;;;;;22.34;60.26;101739.84;5047688;28;19936;-65
2021/03/31 08:11:48;;;;;;;;;;;;;;;22.28;63.81;101744.19;5046731;28;19932;-66
2021/03/31 08:14:16;;;;;;;;;;;;;;;22.22;59.94;101736.59;5031026;28;20395;-65
2021/03/31 08:16:42;;;;;;;;;;;;;;;22.04;61.67;101740.44;5036171;28;20035;-65
2021/03/31 08:19:13;;;;;;;;;;;;;;;21.78;61.83;101734.25;5037010;28;19960;-66
2021/03/31 08:21:38;;;;;;;;;;;;;;;22.23;60.74;101739.19;5030827;28;19928;-66
2021/03/31 08:24:05;;;;;;;;;;;;;;;22.01;59.01;101739.94;5031980;28;19972;-66
2021/03/31 08:26:33;;;;;;;;;;;;;;;22.27;58.18;101738.84;5044034;28;19983;-65
2021/03/31 08:29:00;;;;;;;;;;;;;;;23.10;56.18;101734.63;5055917;28;19932;-65
2021/03/31 08:31:27;;;;;;;;;;;;;;;23.92;54.40;101738.72;5042958;28;19971;-64
2021/03/31 08:33:53;;;;;;;;;;;;;;;24.21;51.30;101729.56;5048886;28;19976;-72
2021/03/31 08:36:20;;;;;;;;;;;;;;;24.01;47.86;101734.81;5046866;28;19925;-71
2021/03/31 08:38:49;;;;;;;;;;;;;;;22.40;53.07;101737.25;5049579;28;19932;-65
2021/03/31 08:41:16;;;;;;;;;;;;;;;23.10;49.77;101736.56;5020276;28;20344;-65
2021/03/31 08:43:44;;;;;;;;;;;;;;;23.60;49.63;101742.59;5046908;28;19956;-65
2021/03/31 08:46:10;;;;;;;;;;;;;;;24.24;48.51;101729.16;5049214;28;19997;-73
2021/03/31 08:48:38;;;;;;;;;;;;;;;24.12;50.64;101733.47;5044712;28;20387;-73
2021/03/31 08:51:08;;;;;;;;;;;;;;;24.45;49.78;101729.44;5046711;28;19931;-73
2021/03/31 08:53:34;;;;;;;;;;;;;;;24.60;46.31;101723.88;5051525;28;19925;-73
2021/03/31 08:56:02;;;;;;;;;;;;;;;24.17;47.65;101722.69;5048868;28;19925;-73
2021/03/31 08:58:28;;;;;;;;;;;;;;;24.29;46.55;101723.06;5047694;28;19924;-73
2021/03/31 09:00:54;;;;;;;;;;;;;;;23.43;47.81;101730.81;5043692;28;20022;-73
2021/03/31 09:03:21;;;;;;;;;;;;;;;24.27;48.01;101722.38;5051118;28;19928;-72
2021/03/31 09:05:58;;;;;;;;;;;;;;;24.08;48.30;101726.59;5049766;28;19971;-72
2021/03/31 09:08:24;;;;;;;;;;;;;;;23.44;49.26;101725.09;5053314;28;19932;-72
2021/03/31 09:10:51;;;;;;;;;;;;;;;23.39;49.37;101728.41;5053827;28;19929;-72
2021/03/31 09:13:22;;;;;;;;;;;;;;;22.84;49.30;101722.00;5046039;28;20006;-72
2021/03/31 09:15:52;;;;;;;;;;;;;;;23.37;50.68;101713.88;5054453;28;19925;-73
2021/03/31 09:18:18;;;;;;;;;;;;;;;23.45;50.04;101709.31;5051937;28;19932;-72
2021/03/31 09:20:45;;;;;;;;;;;;;;;24.04;50.63;101703.91;5048896;28;20280;-72
2021/03/31 09:23:18;;;;;;;;;;;;;;;24.76;47.23;101701.50;5048609;28;20046;-71
2021/03/31 09:25:43;;;;;;;;;;;;;;;24.95;46.02;101704.66;5052652;28;19978;-72
2021/03/31 09:28:15;;;;;;;;;;;;;;;24.51;46.42;101699.00;5049736;28;20023;-71
2021/03/31 09:30:41;;;;;;;;;;;;;;;23.43;48.94;101706.75;5046848;28;20385;-72
2021/03/31 09:33:13;;;;;;;;;;;;;;;24.44;47.29;101695.31;5053249;28;19963;-72
2021/03/31 09:35:40;;;;;;;;;;;;;;;24.79;46.77;101695.53;5046619;28;19929;-72
2021/03/31 09:38:06;;;;;;;;;;;;;;;24.47;46.48;101691.28;5037356;28;19933;-71
2021/03/31 09:40:34;;;;;;;;;;;;;;;24.40;45.35;101692.03;5049149;28;19947;-72
2021/03/31 09:43:00;;;;;;;;;;;;;;;25.15;44.62;101691.88;5049078;28;19925;-72
2021/03/31 09:45:27;;;;;;;;;;;;;;;25.69;43.28;101686.81;5049763;28;20410;-72
2021/03/31 09:47:53;;;;;;;;;;;;;;;26.00;42.87;101683.63;5052949;28;19925;-71
2021/03/31 09:50:23;;;;;;;;;;;;;;;25.52;42.05;101676.00;5049286;28;20377;-72
2021/03/31 09:52:53;;;;;;;;;;;;;;;25.59;41.39;101675.19;5053016;28;19929;-72
2021/03/31 09:55:19;;;;;;;;;;;;;;;25.97;39.09;101669.25;5051869;28;19932;-73
2021/03/31 09:57:48;;;;;;;;;;;;;;;26.08;39.72;101674.25;5052884;28;20392;-72
2021/03/31 10:00:16;;;;;;;;;;;;;;;25.57;41.21;101664.25;5036985;28;19951;-71
2021/03/31 10:02:43;;;;;;;;;;;;;;;25.80;40.59;101674.28;5044324;28;19929;-72
2021/03/31 10:05:12;;;;;;;;;;;;;;;25.52;41.33;101659.31;5031783;28;19932;-71
2021/03/31 10:07:38;;;;;;;;;;;;;;;25.56;37.78;101663.41;5049837;28;19928;-71
2021/03/31 10:10:06;;;;;;;;;;;;;;;25.96;37.30;101654.47;5038273;28;19925;-72
2021/03/31 10:12:34;;;;;;;;;;;;;;;25.71;37.21;101651.34;5032722;28;20357;-72
2021/03/31 10:15:00;;;;;;;;;;;;;;;25.74;34.58;101651.78;5043063;28;19933;-72
2021/03/31 10:17:28;;;;;;;;;;;;;;;25.88;34.89;101641.63;5039073;28;19959;-73
2021/03/31 10:19:54;;;;;;;;;;;;;;;25.87;34.81;101645.44;5037133;28;19925;-72
2021/03/31 10:22:20;;;;;;;;;;;;;;;26.25;34.78;101638.63;5016532;28;19929;-73
2021/03/31 10:24:47;;;;;;;;;;;;;;;26.53;33.13;101630.16;5052014;28;20482;-73
2021/03/31 10:27:15;;;;;;;;;;;;;;;26.73;31.45;101634.97;5050314;28;20311;-72
2021/03/31 10:29:45;;;;;;;;;;;;;;;26.65;32.06;101633.19;5052399;28;19929;-72
2021/03/31 10:32:13;;;;;;;;;;;;;;;26.57;32.06;101625.88;5046740;28;19929;-72
2021/03/31 10:34:40;;;;;;;;;;;;;;;26.60;30.67;101620.97;5050778;28;19928;-73
2021/03/31 10:37:12;;;;;;;;;;;;;;;26.97;30.78;101624.31;5051800;28;20303;-72
2021/03/31 10:48:18;;;;;;;;;;;;;;;26.65;29.81;101601.72;5015182;28;19925;-72
2021/03/31 10:50:48;;;;;;;;;;;;;;;26.81;29.69;101603.28;5032539;28;19932;-72
2021/03/31 10:53:14;;;;;;;;;;;;;;;27.10;28.27;101601.16;5037372;28;20011;-72
2021/03/31 10:55:42;;;;;;;;;;;;;;;26.64;28.98;101586.94;5029594;28;19935;-72
2021/03/31 10:58:09;;;;;;;;;;;;;;;26.49;29.88;101601.03;5036380;28;19931;-72
2021/03/31 11:00:35;;;;;;;;;;;;;;;26.58;28.35;101587.78;5032956;28;19976;-64
2021/03/31 11:03:01;;;;;;;;;;;;;;;26.59;29.20;101589.50;5040742;28;19929;-64
2021/03/31 11:05:27;;;;;;;;;;;;;;;27.03;28.74;101588.09;5031033;28;19925;-65
2021/03/31 11:07:54;;;;;;;;;;;;;;;27.15;28.07;101587.44;5041302;28;20011;-65
2021/03/31 11:10:20;;;;;;;;;;;;;;;26.56;29.45;101576.88;5051467;28;20403;-65
2021/03/31 11:12:46;;;;;;;;;;;;;;;26.75;28.49;101579.94;5044481;28;19935;-65
2021/03/31 11:15:15;;;;;;;;;;;;;;;26.08;28.64;101570.50;5048922;28;19983;-65
2021/03/31 11:17:48;;;;;;;;;;;;;;;25.54;29.32;101559.91;5038599;28;19935;-64
2021/03/31 11:20:28;;;;;;;;;;;;;;;25.77;29.52;101563.47;5031631;28;19925;-64
2021/03/31 11:25:47;;;;;;;;;;;;;;;26.01;28.13;101549.03;5041164;28;19928;-65
2021/03/31 11:28:13;;;;;;;;;;;;;;;26.18;27.77;101552.34;5050441;28;19964;-65
2021/03/31 11:30:40;;;;;;;;;;;;;;;25.56;28.52;101549.47;5050229;28;19952;-65
2021/03/31 11:33:06;;;;;;;;;;;;;;;26.23;28.58;101541.44;5043037;28;19936;-65
2021/03/31 11:35:32;;;;;;;;;;;;;;;26.42;27.74;101538.06;5032603;28;19925;-64
2021/03/31 11:37:57;;;;;;;;;;;;;;;24.80;28.66;101538.16;5039110;28;19943;-65
2021/03/31 11:40:23;;;;;;;;;;;;;;;25.18;29.04;101529.50;5049673;28;20304;-64
2021/03/31 11:42:49;;;;;;;;;;;;;;;25.57;27.51;101528.06;5041064;28;19929;-65
2021/03/31 11:45:15;;;;;;;;;;;;;;;26.03;27.70;101521.91;5048844;28;19967;-64
2021/03/31 11:47:42;;;;;;;;;;;;;;;24.94;27.59;101508.59;5034023;28;19986;-65
2021/03/31 11:50:08;;;;;;;;;;;;;;;23.92;28.57;101514.16;5051022;28;19929;-65
2021/03/31 11:52:34;;;;;;;;;;;;;;;24.56;28.60;101509.75;5043890;28;19925;-64
2021/03/31 11:55:00;;;;;;;;;;;;;;;25.50;27.69;101505.81;5031879;28;19924;-66
2021/03/31 11:57:26;;;;;;;;;;;;;;;25.66;26.13;101507.38;5046046;28;19932;-65
2021/03/31 11:59:52;;;;;;;;;;;;;;;26.05;25.31;101511.41;5031317;28;19929;-65
2021/03/31 12:02:18;;;;;;;;;;;;;;;26.53;25.19;101506.84;5040754;28;19960;-65
2021/03/31 12:04:44;;;;;;;;;;;;;;;26.53;24.92;101490.13;5046106;28;20119;-65
2021/03/31 12:07:12;;;;;;;;;;;;;;;25.53;26.02;101483.16;5042535;28;19925;-65
2021/03/31 12:09:41;;;;;;;;;;;;;;;25.72;26.19;101478.78;5050989;28;19929;-64
2021/03/31 12:12:07;;;;;;;;;;;;;;;24.60;27.02;101475.00;5047102;28;19925;-65
2021/03/31 12:14:34;;;;;;;;;;;;;;;24.30;27.56;101468.72;5045541;28;20066;-65
2021/03/31 12:17:00;;;;;;;;;;;;;;;24.77;26.27;101458.06;5045966;28;19956;-64
2021/03/31 12:19:26;;;;;;;;;;;;;;;25.58;26.34;101467.81;5047272;28;19932;-64
2021/03/31 12:21:53;;;;;;;;;;;;;;;26.02;25.16;101469.25;5050674;28;19928;-65
2021/03/31 12:24:19;;;;;;;;;;;;;;;26.99;23.93;101460.59;5050219;28;20016;-65
2021/03/31 12:26:45;;;;;;;;;;;;;;;26.01;24.83;101460.03;5043456;28;19967;-64
2021/03/31 12:29:11;;;;;;;;;;;;;;;25.44;25.91;101461.31;5049069;28;20002;-64
2021/03/31 12:31:37;;;;;;;;;;;;;;;25.62;25.59;101456.06;5031069;28;20015;-64
2021/03/31 12:34:03;;;;;;;;;;;;;;;26.33;25.36;101453.94;5050935;28;19928;-64
2021/03/31 12:36:29;;;;;;;;;;;;;;;26.48;24.58;101454.56;5051672;28;19924;-64
2021/03/31 12:38:55;;;;;;;;;;;;;;;26.99;23.40;101444.75;5053551;28;19971;-64
2021/03/31 12:41:21;;;;;;;;;;;;;;;27.13;23.96;101444.72;5045673;28;20376;-64
2021/03/31 12:43:47;;;;;;;;;;;;;;;27.38;23.03;101440.19;5051820;28;19937;-63
2021/03/31 12:46:13;;;;;;;;;;;;;;;27.47;23.37;101439.94;5054145;28;19929;-64
2021/03/31 12:48:39;;;;;;;;;;;;;;;26.98;22.83;101443.03;5045973;28;19998;-64